This is the latest recevied weather packets stored in our database for station/object OK1JRA-6. If no packets are shown the sender has not sent any weather packets the latest 10 day(s).
| Time | Temp. | Humidity | Pressure | Rain* | Wind** | Luminosity | Snow |
|---|---|---|---|---|---|---|---|
| 1778091271 | 17.22° C | 54% | 1005.2 hPa | 0 mm | - | - | - |
| 1778089434 | 18.89° C | 51% | 1004.9 hPa | 0 mm | - | - | - |
| 1778089128 | 18.89° C | 51% | 1004.9 hPa | 0 mm | - | - | - |
| 1778088516 | 19.44° C | 50% | 1004.7 hPa | 0 mm | - | - | - |
| 1778088209 | 20° C | 49% | 1004.7 hPa | 0 mm | - | - | - |
| 1778087597 | 20.56° C | 48% | 1004.7 hPa | 0 mm | - | - | - |
| 1778087291 | 20.56° C | 48% | 1004.7 hPa | 0 mm | - | - | - |
| 1778086985 | 21.11° C | 48% | 1004.7 hPa | 0 mm | - | - | - |
| 1778086679 | 21.11° C | 47% | 1004.7 hPa | 0 mm | - | - | - |
| 1778086372 | 21.11° C | 48% | 1004.8 hPa | 0 mm | - | - | - |
| 1778086066 | 21.11° C | 48% | 1004.8 hPa | 0 mm | - | - | - |
| 1778085454 | 21.67° C | 46% | 1004.6 hPa | 0 mm | - | - | - |
| 1778085148 | 21.67° C | 46% | 1004.6 hPa | 0 mm | - | - | - |
| 1778084842 | 21.67° C | 45% | 1004.6 hPa | 0 mm | - | - | - |
| 1778084536 | 22.22° C | 45% | 1004.7 hPa | 0 mm | - | - | - |
| 1778084229 | 22.22° C | 44% | 1004.8 hPa | 0 mm | - | - | - |
| 1778083617 | 22.78° C | 43% | 1004.8 hPa | 0 mm | - | - | - |
| 1778083311 | 22.22° C | 44% | 1004.7 hPa | 0 mm | - | - | - |
| 1778083005 | 21.67° C | 44% | 1004.7 hPa | 0 mm | - | - | - |
| 1778082698 | 21.11° C | 46% | 1004.6 hPa | 0 mm | - | - | - |
| 1778082392 | 21.11° C | 43% | 1004.7 hPa | 0 mm | - | - | - |
| 1778082086 | 21.11° C | 42% | 1004.7 hPa | 0 mm | - | - | - |
| 1778081780 | 21.11° C | 42% | 1004.8 hPa | 0 mm | - | - | - |
| 1778081168 | 22.22° C | 41% | 1004.8 hPa | 0 mm | - | - | - |
| 1778080861 | 22.78° C | 40% | 1004.9 hPa | 0 mm | - | - | - |
* Rain latest hour (hover to see other rain measurements)
** Current wind speed in m/s (hover to see current wind gust speed)